TimeCST,TemperatureF,Dew PointF,Humidity,Sea Level PressureIn,VisibilityMPH,Wind Direction,Wind SpeedMPH,Gust SpeedMPH,PrecipitationIn,Events,Conditions,WindDirDegrees,DateUTC
12:55 AM,39.0,29.8,70,30.26,10.0,NNW,4.6,-,N/A,,Clear,330,2013-03-07 06:55:00
1:55 AM,37.6,29.7,73,30.26,10.0,NNE,3.5,-,N/A,,Clear,20,2013-03-07 07:55:00
2:55 AM,35.4,29.3,78,30.25,10.0,North,6.9,-,N/A,,Clear,360,2013-03-07 08:55:00
3:55 AM,36.0,29.3,77,30.24,10.0,North,8.1,-,N/A,,Clear,10,2013-03-07 09:55:00
4:55 AM,35.1,28.6,77,30.26,10.0,NNW,4.6,-,N/A,,Clear,340,2013-03-07 10:55:00
5:55 AM,34.5,29.3,81,30.26,10.0,NNE,4.6,-,N/A,,Mostly Cloudy,20,2013-03-07 11:55:00
6:55 AM,36.3,29.1,75,30.28,10.0,North,9.2,-,N/A,,Mostly Cloudy,10,2013-03-07 12:55:00
7:55 AM,41.7,29.3,61,30.31,10.0,North,8.1,-,N/A,,Scattered Clouds,10,2013-03-07 13:55:00
8:55 AM,46.0,27.7,49,30.34,10.0,North,10.4,-,N/A,,Partly Cloudy,360,2013-03-07 14:55:00
9:55 AM,50.2,28.2,43,30.34,10.0,NNW,4.6,-,N/A,,Partly Cloudy,340,2013-03-07 15:55:00
10:55 AM,55.0,26.2,33,30.33,10.0,NNE,5.8,-,N/A,,Clear,30,2013-03-07 16:55:00
11:55 AM,57.9,26.1,30,30.30,10.0,SW,8.1,-,N/A,,Partly Cloudy,230,2013-03-07 17:55:00
12:55 PM,57.7,33.4,40,30.27,10.0,South,9.2,-,N/A,,Partly Cloudy,190,2013-03-07 18:55:00
1:55 PM,56.5,36.3,47,30.25,10.0,SSW,12.7,-,N/A,,Partly Cloudy,200,2013-03-07 19:55:00
2:55 PM,57.7,38.1,48,30.24,10.0,South,13.8,-,N/A,,Mostly Cloudy,190,2013-03-07 20:55:00
3:55 PM,58.3,39.0,49,30.24,10.0,SW,6.9,-,N/A,,Mostly Cloudy,230,2013-03-07 21:55:00
4:55 PM,56.8,41.2,56,30.22,10.0,SW,6.9,-,N/A,,Mostly Cloudy,230,2013-03-07 22:55:00
5:55 PM,55.2,43.2,64,30.24,10.0,WSW,5.8,-,N/A,,Mostly Cloudy,240,2013-03-07 23:55:00
6:55 PM,53.1,41.9,66,30.24,10.0,West,6.9,-,N/A,,Mostly Cloudy,280,2013-03-08 00:55:00
7:55 PM,49.1,41.5,75,30.24,10.0,West,6.9,-,N/A,,Mostly Cloudy,280,2013-03-08 01:55:00
8:55 PM,45.5,40.6,83,30.25,10.0,West,5.8,-,N/A,,Scattered Clouds,280,2013-03-08 02:55:00
9:55 PM,43.7,40.5,88,30.25,10.0,WNW,8.1,-,N/A,,Partly Cloudy,300,2013-03-08 03:55:00
10:55 PM,43.3,40.3,89,30.25,10.0,WNW,5.8,-,N/A,,Partly Cloudy,300,2013-03-08 04:55:00
11:55 PM,41.9,37.8,85,30.25,10.0,NW,4.6,-,N/A,,Partly Cloudy,310,2013-03-08 05:55:00